Latest Weather Observations for Butlers Gorge

IDT60801

Issued at 7:05 pm EDT Friday 31 October 2014 (issued every 30 minutes, with the page automatically refreshed every 10 minutes)

About weather observations | Map of weather stations | Latest weather observations for TAS | Other Formats
Station Details ID: 096003 Name: BUTLERS GORGE Lat: -42.28 Lon: 146.28 Height: 667.0 m
Data from the previous 72 hours. | See also: Recent months at Butlers Gorge
Date/Time
EDT
Temp
°C
App
Temp
°C
Dew
Point
Rel
Hum
%
Delta-T
°C
Wind Press
QNH
hPa
Press
MSL
hPa
Rain
since 9 am
mm
Dir
 
Spd
km/h
Gust
km/h
Spd
kts
Gust
kts
31/07:00pm 16.3 11.8 4.0 44 5.9 NW 17 37 9 20 - - 1.8
31/06:30pm 16.7 12.2 4.1 43 6.1 WNW 17 32 9 17 - - 1.8
31/06:00pm 17.0 11.6 4.7 44 6.0 WNW 22 35 12 19 - - 1.8
31/05:30pm 17.2 12.6 5.5 46 5.9 NW 19 39 10 21 - - 1.8
31/05:00pm 17.0 11.6 6.5 50 5.4 NW 24 46 13 25 - - 1.8
31/04:30pm 17.2 12.6 6.7 50 5.4 NW 20 37 11 20 - - 1.8
31/04:00pm 16.9 12.6 7.8 55 4.8 NW 20 43 11 23 - - 1.8
31/03:30pm 16.3 13.0 9.7 65 3.6 NW 17 28 9 15 - - 1.8
31/03:00pm 15.3 12.1 9.9 70 2.9 NW 17 30 9 16 - - 1.8
31/02:30pm 13.6 11.8 10.8 83 1.5 N 11 20 6 11 - - 1.8
31/02:00pm 12.4 10.8 10.1 86 1.2 N 9 17 5 9 - - 1.8
31/01:30pm 12.2 9.7 9.8 85 1.3 NW 13 22 7 12 - - 1.6
31/01:00pm 12.4 10.7 10.0 85 1.3 NNW 9 17 5 9 - - 1.2
31/12:30pm 10.9 8.5 8.8 87 1.1 NNW 11 20 6 11 - - 0.6
31/12:00pm 10.9 8.8 8.3 84 1.3 N 9 19 5 10 - - 0.2
31/11:30am 11.0 8.4 7.9 81 1.6 NNW 11 24 6 13 - - 0.2
31/11:00am 10.7 7.4 6.6 76 2.0 NNW 13 22 7 12 - - 0.0
31/10:30am 10.7 8.2 6.6 76 2.0 NNW 9 17 5 9 - - 0.0
31/10:00am 11.0 8.5 6.4 73 2.2 WNW 9 13 5 7 - - 0.0
31/09:30am 10.8 7.8 6.0 72 2.3 NW 11 19 6 10 - - 0.0
31/09:00am 10.4 7.4 5.8 73 2.2 WNW 11 22 6 12 - - 1.8
31/08:30am 10.4 7.7 5.4 71 2.4 NW 9 22 5 12 - - 1.8
31/08:00am 8.8 5.9 4.6 75 1.9 NW 9 17 5 9 - - 1.8
31/07:30am 8.3 5.4 4.5 77 1.7 W 9 19 5 10 - - 1.8
31/07:00am 8.1 5.2 4.7 79 1.6 WNW 9 15 5 8 - - 1.8
31/06:30am 8.0 5.5 4.6 79 1.6 NW 7 17 4 9 - - 1.8
31/06:00am 7.9 5.0 4.7 80 1.5 WNW 9 13 5 7 - - 1.8
31/05:30am 8.0 5.1 4.4 78 1.6 NW 9 17 5 9 - - 1.8
31/05:00am 8.0 5.1 4.8 80 1.5 W 9 24 5 13 - - 1.8
31/04:30am 8.0 5.6 5.3 83 1.3 W 7 13 4 7 - - 1.8
31/04:00am 8.2 5.4 5.3 82 1.4 W 9 22 5 12 - - 1.8
31/03:30am 8.2 5.0 5.3 82 1.4 NW 11 24 6 13 - - 1.8
31/03:00am 8.2 5.1 5.5 83 1.3 NW 11 30 6 16 - - 1.8
31/02:30am 8.2 4.6 5.1 81 1.4 N 13 24 7 13 - - 1.8
31/02:00am 8.1 5.0 5.4 83 1.3 NNW 11 22 6 12 - - 1.8
31/01:30am 8.1 5.4 5.4 83 1.3 NNW 9 26 5 14 - - 1.8
31/01:00am 8.2 4.7 5.5 83 1.3 NW 13 30 7 16 - - 1.8
31/12:30am 8.2 5.1 5.7 84 1.2 NW 11 22 6 12 - - 1.8
31/12:00am 8.1 5.1 5.9 86 1.0 NW 11 20 6 11 - - 1.8
 
Date/Time
EDT
Temp
°C
App
Temp
°C
Dew
Point
Rel
Hum
%
Delta-T
°C
Wind Press
QNH
hPa
Press
MSL
hPa
Rain
since 9 am
mm
Dir
 
Spd
km/h
Gust
km/h
Spd
kts
Gust
kts
30/11:30pm 8.0 4.6 6.0 87 0.9 NW 13 20 7 11 - - 1.8
30/11:00pm 8.0 5.4 6.0 87 0.9 NNW 9 22 5 12 - - 1.8
30/10:30pm 8.0 5.8 6.3 89 0.8 NNW 7 19 4 10 - - 1.8
30/10:00pm 8.1 5.5 5.9 86 1.0 WNW 9 17 5 9 - - 1.8
30/09:30pm 8.1 5.5 5.9 86 1.0 NW 9 15 5 8 - - 1.8
30/09:00pm 8.0 5.7 5.8 86 1.0 WNW 7 13 4 7 - - 1.8
30/08:30pm 8.0 5.4 6.1 88 0.9 NW 9 15 5 8 - - 1.8
30/08:00pm 8.0 6.4 6.3 89 0.8 ENE 4 7 2 4 - - 1.8
30/07:30pm 8.0 5.7 5.8 86 1.0 WNW 7 19 4 10 - - 1.8
30/07:00pm 8.2 6.2 6.3 88 0.9 W 6 9 3 5 - - 1.8
30/06:30pm 8.1 5.5 6.2 88 0.9 W 9 20 5 11 - - 1.6
30/06:00pm 8.4 6.8 6.2 86 1.0 W 4 11 2 6 - - 1.4
30/05:30pm 8.6 6.6 6.2 85 1.1 NW 6 9 3 5 - - 1.4
30/05:00pm 9.1 7.1 6.2 82 1.4 WNW 6 15 3 8 - - 1.4
30/04:30pm 9.5 7.0 6.4 81 1.5 NW 9 17 5 9 - - 1.4
30/04:00pm 9.4 7.1 7.3 87 1.0 WSW 9 17 5 9 - - 1.4
30/03:30pm 9.1 7.2 6.5 84 1.3 W 6 9 3 5 - - 1.4
30/03:00pm 9.6 7.1 6.7 82 1.4 W 9 20 5 11 - - 0.8
30/02:30pm 9.7 7.8 7.5 86 1.1 WNW 7 15 4 8 - - 0.8
30/02:00pm 9.2 4.8 6.6 84 1.3 SW 19 24 10 13 - - 0.4
30/01:30pm 10.5 7.2 6.6 77 1.9 WNW 13 24 7 13 - - 0.2
30/01:00pm 9.9 6.9 6.2 78 1.8 W 11 22 6 12 - - 0.2
30/12:30pm 9.5 7.2 7.3 86 1.1 W 9 19 5 10 - - 0.2
30/12:00pm 9.4 6.6 6.8 84 1.3 WNW 11 22 6 12 - - 0.2
30/11:30am 9.4 5.7 6.3 81 1.5 NW 15 26 8 14 - - 0.0
30/11:00am 9.5 6.9 6.0 79 1.7 WNW 9 26 5 14 - - 0.0
30/10:30am 9.1 5.7 5.8 80 1.6 NW 13 24 7 13 - - 0.0
30/10:00am 8.8 6.0 5.2 78 1.7 W 9 17 5 9 - - 0.0
30/09:30am 8.3 5.6 5.6 83 1.3 W 9 15 5 8 - - 0.0
30/09:00am 7.9 4.8 5.7 86 1.0 NW 11 24 6 13 - - 2.6
30/08:30am 7.7 5.6 6.0 89 0.8 WNW 6 15 3 8 - - 2.6
30/08:00am 7.6 4.9 5.7 88 0.9 WNW 9 22 5 12 - - 2.6
30/07:30am 7.5 4.8 5.8 89 0.8 WNW 9 19 5 10 - - 2.4
30/07:00am 7.5 5.4 6.0 90 0.7 WNW 6 19 3 10 - - 2.4
30/06:30am 7.4 4.8 5.9 90 0.7 WSW 9 17 5 9 - - 2.4
30/06:00am 7.5 4.8 5.6 88 0.9 W 9 30 5 16 - - 2.4
30/05:30am 7.3 5.0 5.8 90 0.7 SW 7 22 4 12 - - 2.4
30/05:00am 7.4 4.7 5.7 89 0.8 WNW 9 19 5 10 - - 2.0
30/04:30am 7.5 3.6 5.3 86 1.0 NW 15 28 8 15 - - 2.0
30/04:00am 7.0 3.9 5.6 91 0.7 WNW 11 19 6 10 - - 2.0
30/03:30am 7.1 3.6 5.3 88 0.8 WNW 13 28 7 15 - - 2.0
30/03:00am 7.3 4.1 5.1 86 1.0 NW 11 26 6 14 - - 2.0
30/02:30am 7.0 4.2 5.2 88 0.8 WNW 9 17 5 9 - - 2.0
30/02:00am 7.1 3.9 4.9 86 1.0 WNW 11 22 6 12 - - 2.0
30/01:30am 7.2 4.4 5.3 88 0.9 WNW 9 15 5 8 - - 1.8
30/01:00am 7.2 4.4 5.3 88 0.9 WNW 9 15 5 8 - - 1.8
30/12:30am 7.2 4.5 5.7 90 0.7 WNW 9 17 5 9 - - 1.8
30/12:00am 7.3 4.7 5.9 91 0.7 W 9 20 5 11 - - 1.6
 
Date/Time
EDT
Temp
°C
App
Temp
°C
Dew
Point
Rel
Hum
%
Delta-T
°C
Wind Press
QNH
hPa
Press
MSL
hPa
Rain
since 9 am
mm
Dir
 
Spd
km/h
Gust
km/h
Spd
kts
Gust
kts
29/11:30pm 7.3 5.0 5.9 91 0.7 W 7 13 4 7 - - 1.4
29/11:00pm 7.4 5.1 5.9 90 0.7 WSW 7 15 4 8 - - 1.2
29/10:30pm 7.8 4.7 5.6 86 1.0 W 11 22 6 12 - - 1.2
29/10:00pm 7.9 4.9 6.0 88 0.9 W 11 17 6 9 - - 1.2
29/09:30pm 8.0 4.6 6.0 87 0.9 W 13 28 7 15 - - 0.8
29/09:00pm 8.5 4.5 5.1 79 1.6 WNW 15 28 8 15 - - 0.8
29/08:30pm 8.5 3.7 5.8 83 1.3 WNW 20 33 11 18 - - 0.8
29/08:00pm 8.4 4.6 6.0 85 1.1 NW 15 28 8 15 - - 0.8
29/07:30pm 8.6 4.4 5.7 82 1.4 WNW 17 30 9 16 - - 0.8
29/07:00pm 8.8 4.0 5.5 80 1.6 WNW 20 35 11 19 - - 0.8
29/06:30pm 9.1 4.6 6.2 82 1.4 NW 19 35 10 19 - - 0.8
29/06:00pm 9.3 6.3 6.2 81 1.5 NW 11 24 6 13 - - 0.8
29/05:30pm 9.5 5.5 4.9 73 2.1 WNW 15 28 8 15 - - 0.8
29/05:00pm 9.5 6.1 5.9 78 1.7 W 13 20 7 11 - - 0.8
29/04:30pm 9.5 5.4 6.0 79 1.7 WNW 17 32 9 17 - - 0.8
29/04:00pm 9.8 5.9 5.2 73 2.2 WNW 15 28 8 15 - - 0.8
29/03:30pm 9.9 5.2 5.1 72 2.3 WNW 19 37 10 20 - - 0.8
29/03:00pm 9.9 4.9 4.5 69 2.5 WNW 20 39 11 21 - - 0.8
29/02:30pm 9.6 4.7 5.2 74 2.1 WNW 20 43 11 23 - - 0.8
29/02:00pm 9.5 4.6 5.1 74 2.1 WNW 20 50 11 27 - - 0.8
29/01:30pm 9.1 3.7 4.5 73 2.1 WNW 22 33 12 18 - - 0.8
29/01:00pm 9.0 4.3 5.2 77 1.8 WNW 19 35 10 19 - - 0.8
29/12:30pm 8.8 4.5 5.2 78 1.7 WNW 17 30 9 16 - - 0.8
29/12:00pm 8.4 4.1 5.2 80 1.5 WNW 17 35 9 19 - - 0.8
29/11:30am 7.4 3.1 5.4 87 0.9 WNW 17 28 9 15 - - 0.8
29/11:00am 7.5 4.0 5.6 88 0.9 W 13 24 7 13 - - 0.6
29/10:30am 6.7 2.3 4.5 86 1.0 WNW 17 33 9 18 - - 0.4
29/10:00am 6.6 3.0 4.9 89 0.8 WNW 13 30 7 16 - - 0.2
29/09:30am 6.2 2.1 4.4 88 0.8 W 15 26 8 14 - - 0.2
29/09:00am 5.9 1.7 3.9 87 0.9 W 15 22 8 12 - - 10.6
29/08:30am 5.5 1.2 3.5 87 0.9 W 15 26 8 14 - - 10.6
29/08:00am 5.2 0.2 3.4 88 0.8 WNW 19 37 10 20 - - 10.6
29/07:30am 5.0 1.5 3.3 89 0.7 W 11 22 6 12 - - 10.6
29/07:00am 4.8 1.2 2.8 87 0.9 WNW 11 20 6 11 - - 10.6
29/06:30am 4.7 0.9 1.9 82 1.2 W 11 24 6 13 - - 10.6
29/06:00am 4.4 1.0 1.6 82 1.2 W 9 15 5 8 - - 10.6
29/05:30am 4.2 0.0 1.4 82 1.1 WSW 13 32 7 17 - - 10.6
29/05:00am 4.1 0.3 1.8 85 0.9 W 11 20 6 11 - - 10.6
29/04:30am 4.2 0.6 0.7 78 1.4 W 9 24 5 13 - - 10.6
29/04:00am 3.9 0.2 0.1 76 1.5 W 9 15 5 8 - - 10.6
29/03:30am 3.7 0.0 -0.1 76 1.5 WSW 9 19 5 10 - - 10.6
29/03:00am 3.5 -1.3 -0.1 77 1.4 W 15 26 8 14 - - 10.6
29/02:30am 3.4 -1.1 -0.4 76 1.5 WNW 13 32 7 17 - - 10.6
29/02:00am 3.2 -1.2 0.4 82 1.1 W 13 26 7 14 - - 10.6
29/01:30am 3.2 -1.3 -0.1 79 1.3 W 13 26 7 14 - - 10.6
29/01:00am 2.6 -1.2 -1.0 77 1.4 WNW 9 26 5 14 - - 10.6
29/12:30am 2.6 -1.8 0.2 84 0.9 WSW 13 24 7 13 - - 10.6
29/12:00am 2.9 -2.0 -0.4 79 1.3 W 15 37 8 20 - - 10.4
 
Date/Time
EDT
Temp
°C
App
Temp
°C
Dew
Point
Rel
Hum
%
Delta-T
°C
Wind Press
QNH
hPa
Press
MSL
hPa
Rain
since 9 am
mm
Dir
 
Spd
km/h
Gust
km/h
Spd
kts
Gust
kts
28/11:30pm 2.7 -2.6 -0.7 78 1.3 WSW 17 39 9 21 - - 10.4
28/11:00pm 2.3 -3.5 0.0 85 0.9 WSW 20 44 11 24 - - 10.4
28/10:30pm 3.5 -2.8 -0.9 73 1.7 W 22 46 12 25 - - 10.0
28/10:00pm 3.8 -2.1 -0.8 72 1.8 W 20 35 11 19 - - 9.4
28/09:30pm 3.9 -1.8 -0.9 71 1.8 WSW 19 54 10 29 - - 9.4
28/09:00pm 3.8 -2.7 -2.4 64 2.3 WSW 22 44 12 24 - - 9.4
28/08:30pm 3.8 -2.8 -3.2 60 2.5 WSW 22 54 12 29 - - 9.4
28/08:00pm 3.4 -3.4 -1.7 69 1.9 WSW 24 43 13 23 - - 9.4
28/07:30pm 3.7 -2.3 -3.3 60 2.5 W 19 41 10 22 - - 9.4

Other Formats:

Comma delimited format used in spreadsheet applications
http://www.bom.gov.au/fwo/IDT60801/IDT60801.94959.axf

JavaScript Object Notation format (JSON) in row-major order
http://www.bom.gov.au/fwo/IDT60801/IDT60801.94959.json